Theodore Francis Green State Airport
KPVD : now visible

Airfield :











YOU CAN JOIN US ON...

 
LOGIN :

Register | Disclaimer

   EN    FR    IT 

 









Legend :    VFR   Marginal VFR   IFR   Intensive IFR   Very Intensive IFR
Visi :
Ceiling :
>= 8 km
>= 3000ft
5 to 8 km
1000 to 3000 ft
1500m to 5 km
500 to 1000 ft
800 to 1500m
200 to 500 ft
< 800m
< 200 ft
Symbols :   Thunderstorms  Fog  Heavy snow  Heavy precipitations  Wind > 20 kt






- Airport Elevation : 55 ft
- IATA code : PVD


KPVD - Theodore Francis Green State

CURRENT METAR :
  • 041351Z 23012G22KT 10SM BKN100 BKN240 BKN300 11/03 A3007 RMK AO2 SLP183 T01060033

EXPIRED METARs :
  • 041251Z 20006KT 10SM FEW100 BKN300 07/03 A3006 RMK AO2 SLP181 T00720028
  • 041151Z 20006KT 10SM FEW100 BKN300 07/02 A3006 RMK AO2 SLP179 T00670022 10083 20056 58006

TAF KPVD
Valid from the 04 at 12:00 until the 05 at 12:00 UTC


041134Z 0412/0512 21008KT P6SM BKN200
FM041600 22011G19KT P6SM BKN100
FM042200 22009KT P6SM OVC050
FM050000 22008KT P6SM VCSH OVC030
FM050300 23005KT 4SM -RA BR OVC015
FM051000 02006KT 2SM -RA BR OVC008
KZBW FIR / North America



MET'MAP, your aeronautical weather chart ! - Copyright ORBIFLY December 2007 - Disclaimer

ORBIFLY MET'MAP TEAM :

Programming & Development : Alexandra Zaïnal
Concept & original design : Baudouin d'Aumeries
Assistance for programming : Marc-Olivier Méhu
Technical & hardware support : Manuel Goepfert

Contact : metmap@orbifly.com




SOURCES & CREDITS :

   NOAA       Earth
Advisory